• Join FlightAware (Why Join?)
  • Login
  • US Flag 
01:56PM EDT


 

Airport Tracker/Info


-or-


 

Live Flight TrackerFlight Track Log ✈ TAM3782 ✈ 23-May-2013 ✈ SBBR / BSB - SBJP / JPA

Flight Track Log - Related Links

Times and Time Zones

All times are in EDT time to prevent confusion due to time zone crossing. See the TAM3782 flight status page for this flight to view local times or setup timezone preferences in your user account.

Time Position Orientation Groundspeed Altitude Reporting Facility
EDT Latitude Longitude Course Direction KTS MPH feet Rate Location/Type
10:07PM -15.7840 -47.6550 117° Southeast 374 430 14,600  Level FlightAware
10:08PM -15.7390 -47.5930 53° Northeast 390 449 15,600 1,500 Climbing FlightAware
10:09PM -15.6980 -47.5370 53° Northeast 399 459 16,600 1,500 Climbing FlightAware
10:09PM -15.6340 -47.4510 52° Northeast 411 473 18,000 1,560 Climbing FlightAware
10:10PM -15.5770 -47.3740 52° Northeast 420 483 19,200 1,620 Climbing FlightAware
10:11PM -15.5320 -47.3080 55° Northeast 424 488 20,300 1,320 Climbing FlightAware
10:12PM -15.4890 -47.2400 57° Northeast 433 498 21,000 1,200 Climbing FlightAware
10:12PM -15.4390 -47.1600 57° Northeast 438 504 22,000 1,260 Climbing FlightAware
10:13PM -15.3930 -47.0870 57° Northeast 442 509 22,800 840 Climbing FlightAware
10:14PM -15.3340 -46.9960 56° Northeast 448 516 23,400 360 Climbing FlightAware
10:15PM -15.2950 -46.9350 56° Northeast 448 516 23,400  Level FlightAware
10:15PM -15.2450 -46.8600 55° Northeast 448 516 23,400  Level FlightAware
10:16PM -15.2060 -46.7990 56° Northeast 448 516 23,400  Level FlightAware
10:17PM -15.1670 -46.7390 56° Northeast 448 516 23,400  Level FlightAware
10:17PM -15.1270 -46.6780 56° Northeast 448 516 23,400 -180 Level FlightAware
10:20PM -14.9950 -46.4715 57° Northeast  Level Estimated
10:21PM -14.9325 -46.3741 56° Northeast  Level Estimated
10:22PM -14.8701 -46.2766 56° Northeast  Level Estimated
10:23PM -14.8075 -46.1793 56° Northeast  Level Estimated
10:24PM -14.7450 -46.0820 56° Northeast  Level Estimated
10:25PM -14.6824 -45.9847 56° Northeast  Level Estimated
10:26PM -14.6197 -45.8876 56° Northeast  Level Estimated
10:27PM -14.5570 -45.7904 56° Northeast  Level Estimated
10:28PM -14.4943 -45.6934 56° Northeast  Level Estimated
10:29PM -14.4316 -45.5964 56° Northeast  Level Estimated
10:30PM -14.3688 -45.4994 56° Northeast  Level Estimated
10:31PM -14.3059 -45.4025 56° Northeast  Level Estimated
10:32PM -14.2430 -45.3056 56° Northeast  Level Estimated
10:33PM -14.1801 -45.2088 56° Northeast  Level Estimated
10:34PM -14.1172 -45.1121 56° Northeast  Level Estimated
10:35PM -14.0542 -45.0154 56° Northeast  Level Estimated
10:36PM -13.9911 -44.9187 56° Northeast  Level Estimated
10:37PM -13.9281 -44.8222 56° Northeast  Level Estimated
10:38PM -13.8650 -44.7256 56° Northeast  Level Estimated
10:39PM -13.8018 -44.6291 56° Northeast  Level Estimated
10:40PM -13.7386 -44.5327 56° Northeast  Level Estimated
10:41PM -13.6754 -44.4363 56° Northeast  Level Estimated
10:42PM -13.6121 -44.3400 56° Northeast  Level Estimated
10:43PM -13.5488 -44.2437 56° Northeast  Level Estimated
10:44PM -13.4855 -44.1475 56° Northeast  Level Estimated
10:45PM -13.4221 -44.0513 56° Northeast  Level Estimated
10:46PM -13.3587 -43.9552 56° Northeast  Level Estimated
10:47PM -13.2952 -43.8591 56° Northeast  Level Estimated
10:48PM -13.2318 -43.7631 56° Northeast  Level Estimated
10:49PM -13.1683 -43.6672 56° Northeast  Level Estimated
10:50PM -13.1047 -43.5712 56° Northeast  Level Estimated
10:51PM -13.0411 -43.4754 56° Northeast  Level Estimated
10:52PM -12.9775 -43.3796 56° Northeast  Level Estimated
10:53PM -12.9138 -43.2838 56° Northeast  Level Estimated
10:54PM -12.8501 -43.1881 56° Northeast  Level Estimated
10:55PM -12.7864 -43.0924 56° Northeast  Level Estimated
10:56PM -12.7226 -42.9967 56° Northeast  Level Estimated
10:57PM -12.6588 -42.9012 56° Northeast  Level Estimated
10:58PM -12.5950 -42.8056 56° Northeast  Level Estimated
10:59PM -12.5311 -42.7102 56° Northeast  Level Estimated
11:00PM -12.4672 -42.6147 56° Northeast  Level Estimated
11:01PM -12.4033 -42.5193 56° Northeast  Level Estimated
11:02PM -12.3393 -42.4240 56° Northeast  Level Estimated
11:03PM -12.2753 -42.3287 56° Northeast  Level Estimated
11:04PM -12.2113 -42.2334 55° Northeast  Level Estimated
11:05PM -12.1473 -42.1382 55° Northeast  Level Estimated
11:06PM -12.0832 -42.0431 55° Northeast  Level Estimated
11:07PM -12.0190 -41.9480 55° Northeast  Level Estimated
11:08PM -11.9549 -41.8529 55° Northeast  Level Estimated
11:09PM -11.8907 -41.7579 55° Northeast  Level Estimated
11:10PM -11.8265 -41.6629 55° Northeast  Level Estimated
11:11PM -11.7622 -41.5680 55° Northeast  Level Estimated
11:12PM -11.6979 -41.4731 55° Northeast  Level Estimated
11:13PM -11.6336 -41.3782 55° Northeast  Level Estimated
11:14PM -11.5692 -41.2834 55° Northeast  Level Estimated
11:15PM -11.5049 -41.1887 55° Northeast  Level Estimated
11:16PM -11.4404 -41.0940 55° Northeast  Level Estimated
11:17PM -11.3760 -40.9993 55° Northeast  Level Estimated
11:18PM -11.3115 -40.9047 55° Northeast  Level Estimated
11:19PM -11.2470 -40.8101 55° Northeast  Level Estimated
11:20PM -11.1825 -40.7155 55° Northeast  Level Estimated
11:21PM -11.1179 -40.6210 55° Northeast  Level Estimated
11:22PM -11.0534 -40.5266 55° Northeast  Level Estimated
11:23PM -10.9887 -40.4322 55° Northeast  Level Estimated
11:24PM -10.9241 -40.3378 55° Northeast  Level Estimated
11:25PM -10.8594 -40.2435 55° Northeast  Level Estimated
11:26PM -10.7947 -40.1492 55° Northeast  Level Estimated
11:27PM -10.7299 -40.0549 55° Northeast  Level Estimated
11:28PM -10.6652 -39.9607 55° Northeast  Level Estimated
11:29PM -10.6004 -39.8665 55° Northeast  Level Estimated
11:30PM -10.5356 -39.7724 55° Northeast  Level Estimated
11:31PM -10.4707 -39.6783 55° Northeast  Level Estimated
11:32PM -10.4059 -39.5843 55° Northeast  Level Estimated
11:33PM -10.3410 -39.4902 55° Northeast  Level Estimated
11:34PM -10.2760 -39.3963 55° Northeast  Level Estimated
11:35PM -10.2111 -39.3023 55° Northeast  Level Estimated
11:36PM -10.1461 -39.2084 55° Northeast  Level Estimated
11:37PM -10.0811 -39.1146 55° Northeast  Level Estimated
11:38PM -10.0160 -39.0207 55° Northeast  Level Estimated
11:39PM -9.9510 -38.9270 55° Northeast  Level Estimated
11:40PM -9.8859 -38.8332 55° Northeast  Level Estimated
11:41PM -9.8208 -38.7395 55° Northeast  Level Estimated
11:42PM -9.7556 -38.6458 55° Northeast  Level Estimated
11:43PM -9.6939 -38.5572 55° Northeast  Level Estimated
11:44PM -9.6322 -38.4686 55° Northeast  Level Estimated
11:45PM -9.5705 -38.3801 55° Northeast  Level Estimated
11:46PM -9.5088 -38.2915 55° Northeast  Level Estimated
11:47PM -9.4470 -38.2030 55° Northeast  Level Estimated
11:48PM -9.3852 -38.1146 55° Northeast  Level Estimated
11:49PM -9.3234 -38.0262 55° Northeast  Level Estimated
11:50PM -9.2616 -37.9378 55° Northeast  Level Estimated
11:51PM -9.1997 -37.8494 55° Northeast  Level Estimated
11:52PM -9.1379 -37.7611 55° Northeast  Level Estimated
11:53PM -9.0760 -37.6728 55° Northeast  Level Estimated
11:54PM -9.0141 -37.5845 55° Northeast  Level Estimated
11:55PM -8.9521 -37.4963 55° Northeast  Level Estimated
11:56PM -8.8902 -37.4080 55° Northeast  Level Estimated
11:57PM -8.8282 -37.3199 55° Northeast  Level Estimated
11:58PM -8.7662 -37.2317 55° Northeast  Level Estimated
11:59PM -8.7042 -37.1436 55° Northeast  Level Estimated
12:00AM -7.4350 -35.4330 55° Northeast 378 435 10,900  Level FlightAware
12:00AM -7.4350 -35.4330 55° Northeast 378 435 10,900  Level FlightAware
12:01AM -7.3770 -35.3890 37° Northeast 378 435 10,900  Level FlightAware
12:01AM -7.3770 -35.3890 37° Northeast 378 435 10,900 -1,140 Level FlightAware
12:01AM -7.3220 -35.3490 36° Northeast 269 310 9,900 -1,140 Descending FlightAware
12:01AM -7.3220 -35.3490 36° Northeast 269 310 9,900 -1,440 Level FlightAware
12:02AM -7.2960 -35.3310 34° Northeast 269 310 9,300 -1,440 Descending FlightAware
12:02AM -7.2960 -35.3310 34° Northeast 269 310 9,300 -900 Level FlightAware
12:02AM -7.2810 -35.3190 38° Northeast 270 311 9,000 -900 Descending FlightAware
12:02AM -7.2810 -35.3190 38° Northeast 270 311 9,000 -1,620 Level FlightAware
12:03AM -7.2460 -35.2930 36° Northeast 272 313 8,200 -1,620 Descending FlightAware
12:03AM -7.2460 -35.2930 36° Northeast 272 313 8,200 -1,200 Level FlightAware
12:03AM -7.2450 -35.2930 360° North 272 313 8,100 -1,200 Descending FlightAware
12:03AM -7.2450 -35.2930 360° North 272 313 8,100 -1,560 Level FlightAware
12:03AM -7.2060 -35.2640 36° Northeast 270 311 7,200 -1,560 Descending FlightAware
12:03AM -7.2060 -35.2640 36° Northeast 270 311 7,200 -1,440 Level FlightAware
12:04AM -7.1740 -35.2400 37° Northeast 267 307 6,500 -1,440 Descending FlightAware
12:04AM -7.1740 -35.2400 37° Northeast 267 307 6,500 -1,200 Level FlightAware
12:04AM -7.1530 -35.2240 37° Northeast 266 306 6,000 -1,320 Descending FlightAware
12:05AM -7.1240 -35.2030 36° Northeast 261 300 5,300 -780 Descending FlightAware
12:05AM -7.1020 -35.1870 36° Northeast 261 300 5,300  Level FlightAware
12:08AM -7.1484 -34.9507 101° East  Level Estimated
12:09AM -7.1484 -34.9507 225° Southwest  Level Estimated
12:10AM -7.1484 -34.9507 225° Southwest  Level Estimated
12:11AM -7.1484 -34.9507 225° Southwest  Level Estimated
12:12AM -7.1484 -34.9507 225° Southwest  Level Estimated
12:13AM -7.1484 -34.9507 225° Southwest  Level Estimated
12:14AM -7.1484 -34.9507 225° Southwest  Level Estimated
12:15AM -7.1484 -34.9507 225° Southwest  Level Estimated
12:16AM -7.1484 -34.9507 225° Southwest  Level Estimated
12:17AM -7.1484 -34.9507 225° Southwest  Level Estimated
12:18AM -7.1484 -34.9507 225° Southwest  Level Estimated
12:19AM -7.1484 -34.9507 225° Southwest  Level Estimated
12:20AM -7.1484 -34.9507 225° Southwest  Level Estimated
12:21AM -7.1484 -34.9507 225° Southwest  Level Estimated
12:22AM -7.1484 -34.9507 225° Southwest  Level Estimated
12:23AM -7.1484 -34.9507 225° Southwest  Level Estimated
12:24AM -7.1484 -34.9507 225° Southwest  Level Estimated
12:25AM -7.1484 -34.9507 225° Southwest  Level Estimated
12:26AM -7.1484 -34.9507 225° Southwest  Level Estimated
12:27AM -7.1484 -34.9507 225° Southwest  Level Estimated
12:28AM -7.1484 -34.9507 225° Southwest  Level Estimated
12:29AM -7.1484 -34.9507 225° Southwest  Level Estimated
12:30AM -7.1484 -34.9507 225° Southwest  Level Estimated
12:31AM -7.1484 -34.9507 225° Southwest  Level Estimated
12:32AM -7.1484 -34.9507 225° Southwest  Level Estimated
12:33AM -7.1484 -34.9507 225° Southwest  Level Estimated
12:34AM -7.1484 -34.9507 225° Southwest  Level Estimated
12:35AM -7.1484 -34.9507 225° Southwest  Level Estimated
12:36AM -7.1484 -34.9507 225° Southwest  Level Estimated
12:37AM -7.1484 -34.9507 225° Southwest  Level Estimated
12:38AM -7.1484 -34.9507 225° Southwest  Level Estimated
12:39AM -7.1484 -34.9507 225° Southwest  Level Estimated
12:40AM -7.1484 -34.9507 225° Southwest  Level Estimated